createdAt,value
2022-11-05T00:00:41.759Z,16.23
2022-11-05T00:04:05.054Z,20.95
2022-11-05T00:07:38.225Z,30.02
2022-11-05T00:10:42.721Z,38.95
2022-11-05T00:14:05.362Z,25.20
2022-11-05T00:17:09.963Z,33.75
2022-11-05T00:20:14.758Z,29.33
2022-11-05T00:23:37.451Z,30.20
2022-11-05T00:26:41.596Z,26.02
2022-11-05T00:29:45.855Z,24.83
2022-11-05T00:35:55.641Z,29.55
2022-11-05T00:39:00.068Z,22.73
2022-11-05T00:42:23.540Z,31.10
2022-11-05T00:45:30.074Z,33.25
2022-11-05T00:48:53.137Z,29.40
2022-11-05T00:52:16.057Z,32.13
2022-11-05T00:55:24.334Z,38.92
2022-11-05T00:58:29.270Z,37.72
2022-11-05T01:01:34.028Z,27.73
2022-11-05T01:04:38.674Z,30.50
2022-11-05T01:07:43.133Z,46.88
2022-11-05T01:10:51.721Z,39.38
2022-11-05T01:13:56.262Z,30.52
2022-11-05T01:17:00.584Z,30.05
2022-11-05T01:20:05.779Z,26.85
2022-11-05T01:23:13.785Z,23.15
2022-11-05T01:26:18.724Z,37.28
2022-11-05T01:29:23.309Z,36.40
2022-11-05T01:32:30.664Z,24.52
2022-11-05T01:35:35.260Z,35.03
2022-11-05T01:38:39.611Z,32.83
2022-11-05T01:41:43.873Z,37.65
2022-11-05T01:45:04.555Z,40.13
2022-11-05T01:48:25.741Z,37.90
2022-11-05T01:51:31.014Z,40.20
2022-11-05T01:54:36.008Z,33.33
2022-11-05T01:57:41.054Z,27.52
2022-11-05T02:00:45.732Z,42.83
2022-11-05T02:03:53.544Z,34.63
2022-11-05T02:06:59.181Z,44.08
2022-11-05T02:10:07.156Z,30.50
2022-11-05T02:13:11.953Z,33.78
2022-11-05T02:16:46.622Z,38.20
2022-11-05T02:20:42.462Z,31.80
2022-11-05T02:24:27.166Z,44.17
2022-11-05T02:28:15.024Z,32.67
2022-11-05T02:31:40.749Z,23.65
2022-11-05T02:35:03.004Z,29.08
2022-11-05T02:38:31.416Z,25.17
2022-11-05T02:42:05.297Z,26.77
2022-11-05T02:45:19.574Z,23.10
2022-11-05T02:48:40.954Z,26.80
2022-11-05T02:51:56.196Z,26.65
2022-11-05T02:55:31.228Z,25.65
2022-11-05T03:04:46.530Z,24.92
2022-11-05T03:08:01.419Z,32.83
2022-11-05T03:11:18.069Z,30.48
2022-11-05T03:14:49.200Z,25.15
2022-11-05T03:18:03.833Z,24.52
2022-11-05T03:21:27.825Z,26.23
2022-11-05T03:24:40.968Z,22.88
2022-11-05T03:27:50.163Z,33.58
2022-11-05T03:30:58.240Z,32.42
2022-11-05T03:34:05.771Z,23.42
2022-11-05T03:37:11.645Z,25.88
2022-11-05T03:40:18.298Z,30.58
2022-11-05T03:43:28.607Z,28.48
2022-11-05T03:46:49.244Z,14.90
2022-11-05T03:50:22.612Z,19.38
2022-11-05T03:53:31.691Z,25.83
2022-11-05T03:56:56.981Z,19.98
2022-11-05T04:00:01.687Z,24.35
2022-11-05T04:03:06.075Z,23.38
2022-11-05T04:06:29.592Z,16.70
2022-11-05T04:09:52.610Z,24.27
2022-11-05T04:13:15.674Z,24.05
2022-11-05T04:16:38.819Z,20.95
2022-11-05T04:20:03.457Z,29.02
2022-11-05T04:23:26.506Z,27.50
2022-11-05T04:26:30.742Z,15.07
2022-11-05T04:29:53.394Z,20.13
2022-11-05T04:33:10.939Z,24.02
2022-11-05T04:36:16.059Z,21.05
2022-11-05T04:39:21.483Z,25.35
2022-11-05T04:42:25.736Z,22.27
2022-11-05T04:45:34.389Z,23.27
2022-11-05T04:48:38.952Z,13.10
2022-11-05T04:51:43.296Z,20.42
2022-11-05T04:54:47.461Z,26.08
2022-11-05T04:57:53.462Z,24.17
2022-11-05T05:00:57.829Z,26.67
2022-11-05T05:07:06.154Z,11.88
2022-11-05T05:10:11.808Z,18.77
2022-11-05T05:13:16.339Z,19.95
2022-11-05T05:16:24.911Z,16.08
2022-11-05T05:19:29.075Z,21.02
2022-11-05T05:22:33.608Z,14.85
2022-11-05T05:25:37.884Z,17.52
2022-11-05T05:28:42.141Z,14.68
2022-11-05T05:31:46.381Z,19.17
2022-11-05T05:34:51.834Z,20.27
2022-11-05T05:37:56.856Z,15.88
2022-11-05T05:41:01.438Z,18.48
2022-11-05T05:44:06.776Z,14.13
2022-11-05T05:47:11.143Z,13.75
2022-11-05T05:53:20.045Z,22.05
2022-11-05T05:56:24.157Z,26.52
2022-11-05T05:59:28.643Z,15.98
2022-11-05T06:02:32.824Z,16.50
2022-11-05T06:05:37.423Z,13.65
2022-11-05T06:08:42.709Z,18.60
2022-11-05T06:11:47.239Z,12.32
2022-11-05T06:14:51.387Z,15.20
2022-11-05T06:17:55.837Z,14.05
2022-11-05T06:21:14.163Z,24.67
2022-11-05T06:24:18.431Z,13.43
2022-11-05T06:27:23.755Z,20.13
2022-11-05T06:30:28.008Z,18.08
2022-11-05T06:33:32.415Z,14.32
2022-11-05T06:36:36.726Z,17.30
2022-11-05T06:39:41.143Z,12.55
2022-11-05T06:42:46.929Z,23.13
2022-11-05T06:45:51.827Z,21.98
2022-11-05T06:48:56.332Z,16.27
2022-11-05T06:52:00.761Z,14.80
2022-11-05T06:55:06.024Z,27.05
2022-11-05T06:58:10.731Z,15.23
2022-11-05T07:01:15.319Z,12.52
2022-11-05T07:04:19.804Z,17.30
2022-11-05T07:07:24.274Z,13.55
2022-11-05T07:10:29.087Z,18.67
2022-11-05T07:13:33.823Z,16.85
2022-11-05T07:16:39.334Z,18.40
2022-11-05T07:19:43.878Z,11.27
2022-11-05T07:22:48.394Z,20.92
2022-11-05T07:25:52.758Z,13.85
2022-11-05T07:28:57.285Z,18.08
2022-11-05T07:32:01.811Z,19.15
2022-11-05T07:35:08.693Z,14.88
2022-11-05T07:38:13.204Z,15.02
2022-11-05T07:41:17.294Z,16.85
2022-11-05T07:44:22.246Z,15.82
2022-11-05T07:47:26.848Z,16.48
2022-11-05T07:50:35.109Z,19.05
2022-11-05T07:53:44.919Z,17.80
2022-11-05T07:56:50.006Z,13.88
2022-11-05T07:59:54.696Z,12.00
2022-11-05T08:03:14.442Z,19.48
2022-11-05T08:06:19.084Z,18.52
2022-11-05T08:09:23.437Z,13.65
2022-11-05T08:12:27.670Z,15.23
2022-11-05T08:15:32.868Z,12.10
2022-11-05T08:18:37.704Z,16.75
2022-11-05T08:21:42.515Z,17.25
2022-11-05T08:24:46.852Z,16.58
2022-11-05T08:28:13.568Z,16.38
2022-11-05T08:31:18.207Z,12.57
2022-11-05T08:34:22.287Z,9.45
2022-11-05T08:43:37.556Z,14.30
2022-11-05T08:46:42.083Z,12.27
2022-11-05T08:49:46.695Z,9.63
2022-11-05T08:59:02.615Z,8.98
2022-11-05T09:02:09.903Z,12.55
2022-11-05T09:05:14.827Z,8.63
2022-11-05T09:08:19.597Z,8.68
2022-11-05T09:11:33.134Z,9.43
2022-11-05T09:14:47.753Z,12.60
2022-11-05T09:17:52.522Z,9.23
2022-11-05T09:20:56.622Z,6.40
2022-11-05T09:24:01.226Z,12.73
2022-11-05T09:27:06.823Z,8.77
2022-11-05T09:30:13.649Z,12.38
2022-11-05T09:33:24.986Z,17.90
2022-11-05T09:36:29.234Z,9.98
2022-11-05T09:39:33.905Z,9.68
2022-11-05T09:42:43.731Z,16.73
2022-11-05T09:45:54.108Z,8.50
2022-11-05T09:49:06.108Z,9.30
2022-11-05T09:52:19.912Z,6.43
2022-11-05T09:55:42.465Z,8.57
2022-11-05T09:59:21.814Z,5.78
2022-11-05T10:02:47.576Z,8.85
2022-11-05T10:05:53.999Z,8.27
2022-11-05T10:09:18.934Z,6.35
2022-11-05T10:12:53.688Z,14.38
2022-11-05T10:16:09.255Z,7.82
2022-11-05T10:19:24.787Z,13.80
2022-11-05T10:22:29.223Z,7.55
2022-11-05T10:25:39.438Z,8.95
2022-11-05T10:28:43.818Z,7.30
2022-11-05T10:31:48.921Z,11.50
2022-11-05T10:34:57.164Z,6.18
2022-11-05T10:38:02.556Z,9.10
2022-11-05T10:41:28.812Z,8.10
2022-11-05T10:44:48.497Z,9.20
2022-11-05T10:48:49.194Z,7.10
2022-11-05T10:51:58.074Z,8.05
2022-11-05T10:55:14.882Z,6.95
2022-11-05T10:58:29.080Z,5.50
2022-11-05T11:01:34.221Z,6.97
2022-11-05T11:04:38.612Z,4.78
2022-11-05T11:07:43.165Z,7.97
2022-11-05T11:11:02.215Z,5.90
2022-11-05T11:14:22.334Z,5.57
2022-11-05T11:17:32.486Z,8.00
2022-11-05T11:20:45.529Z,6.03
2022-11-05T11:23:58.290Z,5.80
2022-11-05T11:27:06.703Z,6.85
2022-11-05T11:30:20.175Z,6.90
2022-11-05T11:36:48.752Z,6.53
2022-11-05T11:40:20.971Z,5.80
2022-11-05T11:43:33.880Z,6.15
2022-11-05T11:46:42.745Z,6.38
2022-11-05T11:49:59.220Z,11.27
2022-11-05T11:53:26.514Z,3.30
2022-11-05T11:56:43.555Z,5.28
2022-11-05T12:00:07.767Z,6.47
2022-11-05T12:03:24.261Z,7.85
2022-11-05T12:06:54.164Z,7.03
2022-11-05T12:10:36.446Z,10.70
2022-11-05T12:14:18.536Z,5.28
2022-11-05T12:17:51.404Z,5.80
2022-11-05T12:21:29.459Z,3.60
2022-11-05T12:25:23.193Z,5.15
2022-11-05T12:29:17.123Z,12.02
2022-11-05T12:32:37.343Z,7.10
2022-11-05T12:35:58.255Z,4.38
2022-11-05T12:39:37.050Z,13.50
2022-11-05T12:43:10.515Z,6.45
2022-11-05T12:47:19.585Z,10.93
2022-11-05T12:50:49.657Z,10.68
2022-11-05T12:54:51.429Z,7.07
2022-11-05T12:58:11.888Z,10.23
2022-11-05T13:01:33.356Z,8.45
2022-11-05T13:04:53.283Z,7.22
2022-11-05T13:08:28.624Z,5.43
2022-11-05T13:12:03.129Z,4.35
2022-11-05T13:15:23.592Z,13.77
2022-11-05T13:18:55.609Z,8.70
2022-11-05T13:22:17.383Z,10.57
2022-11-05T13:25:25.624Z,8.32
2022-11-05T13:28:48.362Z,4.07
2022-11-05T13:32:02.828Z,6.88
2022-11-05T13:38:44.694Z,13.73
2022-11-05T13:42:01.279Z,4.47
2022-11-05T13:45:52.199Z,4.43
2022-11-05T13:49:31.461Z,5.93
2022-11-05T13:53:09.412Z,7.68
2022-11-05T13:56:51.981Z,3.28
2022-11-05T14:00:38.993Z,7.47
2022-11-05T14:03:52.516Z,5.57
2022-11-05T14:07:07.187Z,6.90
2022-11-05T14:10:41.334Z,8.38
2022-11-05T14:13:50.176Z,8.65
2022-11-05T14:17:09.981Z,6.53
2022-11-05T14:20:32.719Z,6.55
2022-11-05T14:23:40.561Z,6.10
2022-11-05T14:27:05.210Z,7.32
2022-11-05T14:30:44.031Z,8.13
2022-11-05T14:34:10.101Z,8.70
2022-11-05T14:37:30.086Z,12.52
2022-11-05T14:40:40.130Z,10.57
2022-11-05T14:43:58.791Z,10.57
2022-11-05T14:47:07.754Z,6.07
2022-11-05T14:50:46.351Z,7.05
2022-11-05T14:53:57.638Z,7.90
2022-11-05T14:57:03.010Z,7.57
2022-11-05T15:00:30.167Z,8.88
2022-11-05T15:04:01.969Z,7.25
2022-11-05T15:07:06.314Z,8.40
2022-11-05T15:13:37.744Z,9.05
2022-11-05T15:16:54.614Z,6.03
2022-11-05T15:20:23.751Z,7.63
2022-11-05T15:23:39.536Z,7.63
2022-11-05T15:26:58.286Z,11.90
2022-11-05T15:30:22.477Z,7.75
2022-11-05T15:33:27.345Z,7.57
2022-11-05T15:36:32.421Z,14.70
2022-11-05T15:39:44.034Z,7.20
2022-11-05T15:43:19.636Z,9.60
2022-11-05T15:46:28.584Z,8.70
2022-11-05T15:49:33.276Z,5.18
2022-11-05T15:52:45.688Z,13.27
2022-11-05T15:55:55.730Z,9.02
2022-11-05T15:59:07.137Z,16.38
2022-11-05T16:02:25.704Z,9.57
2022-11-05T16:05:42.181Z,11.68
2022-11-05T16:08:49.424Z,9.75
2022-11-05T16:12:14.452Z,10.55
2022-11-05T16:15:23.481Z,19.02
2022-11-05T16:18:41.317Z,16.48
2022-11-05T16:21:55.102Z,19.02
2022-11-05T16:24:59.367Z,15.73
2022-11-05T16:28:05.671Z,12.32
2022-11-05T16:31:09.588Z,18.88
2022-11-05T16:34:40.824Z,15.60
2022-11-05T16:37:49.270Z,14.70
2022-11-05T16:40:56.053Z,10.77
2022-11-05T16:44:00.424Z,10.40
2022-11-05T16:47:04.844Z,10.73
2022-11-05T16:50:25.796Z,12.70
2022-11-05T16:53:30.200Z,14.18
2022-11-05T16:56:36.044Z,12.80
2022-11-05T16:59:40.514Z,9.85
2022-11-05T17:02:45.813Z,13.38
2022-11-05T17:05:50.124Z,11.90
2022-11-05T17:08:54.368Z,8.30
2022-11-05T17:12:00.731Z,8.45
2022-11-05T17:15:22.370Z,9.88
2022-11-05T17:18:27.175Z,12.50
2022-11-05T17:21:31.825Z,9.98
2022-11-05T17:24:36.226Z,11.07
2022-11-05T17:27:40.944Z,13.95
2022-11-05T17:30:52.167Z,9.23
2022-11-05T17:33:58.647Z,13.80
2022-11-05T17:37:03.091Z,10.57
2022-11-05T17:40:12.453Z,12.07
2022-11-05T17:43:17.306Z,19.35
2022-11-05T17:46:22.248Z,12.90
2022-11-05T17:49:26.730Z,9.80
2022-11-05T17:52:32.498Z,13.23
2022-11-05T17:55:36.948Z,15.45
2022-11-05T17:58:41.499Z,14.68
2022-11-05T18:01:46.044Z,8.73
2022-11-05T18:04:50.810Z,14.23
2022-11-05T18:07:55.567Z,11.52
2022-11-05T18:11:00.588Z,13.60
2022-11-05T18:14:05.475Z,13.68
2022-11-05T18:17:09.643Z,17.40
2022-11-05T18:20:19.244Z,11.07
2022-11-05T18:23:24.368Z,11.45
2022-11-05T18:26:28.877Z,11.25
2022-11-05T18:29:33.372Z,11.32
2022-11-05T18:32:38.757Z,19.40
2022-11-05T18:35:44.792Z,14.32
2022-11-05T18:38:50.735Z,11.48
2022-11-05T18:41:54.989Z,14.70
2022-11-05T18:44:59.781Z,14.38
2022-11-05T18:48:05.088Z,14.70
2022-11-05T18:51:14.116Z,17.15
2022-11-05T18:54:18.433Z,14.07
2022-11-05T18:57:22.644Z,13.02
2022-11-05T19:00:27.936Z,13.65
2022-11-05T19:03:33.608Z,18.52
2022-11-05T19:06:38.557Z,13.73
2022-11-05T19:09:42.941Z,11.25
2022-11-05T19:12:47.174Z,24.38
2022-11-05T19:15:51.562Z,14.40
2022-11-05T19:19:00.362Z,15.88
2022-11-05T19:22:04.917Z,14.40
2022-11-05T19:25:09.161Z,15.82
2022-11-05T19:28:13.775Z,15.25
2022-11-05T19:31:22.614Z,14.18
2022-11-05T19:34:27.453Z,13.68
2022-11-05T19:37:31.797Z,15.55
2022-11-05T19:40:37.622Z,21.05
2022-11-05T19:43:42.712Z,21.10
2022-11-05T19:46:47.527Z,19.95
2022-11-05T19:49:51.878Z,15.70
2022-11-05T19:52:56.172Z,16.85
2022-11-05T19:56:17.177Z,21.50
2022-11-05T19:59:21.534Z,18.25
2022-11-05T20:02:26.511Z,21.15
2022-11-05T20:05:33.953Z,18.77
2022-11-05T20:08:59.409Z,16.02
2022-11-05T20:12:03.242Z,17.08
2022-11-05T20:15:08.232Z,19.55
2022-11-05T20:18:12.920Z,20.05
2022-11-05T20:21:18.873Z,23.67
2022-11-05T20:24:25.296Z,19.88
2022-11-05T20:27:30.230Z,14.20
2022-11-05T20:30:35.662Z,13.95
2022-11-05T20:33:41.509Z,18.98
2022-11-05T20:36:45.608Z,16.20
2022-11-05T20:39:49.756Z,14.02
2022-11-05T20:42:54.219Z,15.13
2022-11-05T20:45:58.870Z,15.23
2022-11-05T20:49:03.432Z,18.35
2022-11-05T20:52:07.605Z,14.35
2022-11-05T20:55:12.240Z,18.08
2022-11-05T20:58:17.627Z,21.42
2022-11-05T21:01:22.638Z,15.60
2022-11-05T21:04:27.372Z,13.98
2022-11-05T21:07:31.732Z,18.77
2022-11-05T21:10:35.952Z,12.70
2022-11-05T21:13:40.438Z,12.68
2022-11-05T21:16:46.104Z,12.02
2022-11-05T21:19:50.942Z,20.63
2022-11-05T21:22:55.721Z,11.70
2022-11-05T21:26:05.416Z,11.98
2022-11-05T21:29:10.722Z,13.57
2022-11-05T21:32:15.021Z,14.07
2022-11-05T21:35:19.154Z,13.38
2022-11-05T21:38:23.867Z,16.52
2022-11-05T21:41:28.653Z,13.20
2022-11-05T21:44:38.365Z,13.77
2022-11-05T21:47:44.543Z,19.30
2022-11-05T21:51:12.305Z,14.40
2022-11-05T21:54:34.921Z,13.02
2022-11-05T21:57:59.485Z,15.85
2022-11-05T22:01:06.420Z,21.98
2022-11-05T22:04:10.694Z,18.50
2022-11-05T22:07:28.946Z,15.80
2022-11-05T22:10:33.557Z,17.23
2022-11-05T22:13:38.058Z,13.65
2022-11-05T22:16:42.666Z,14.13
2022-11-05T22:19:47.192Z,15.23
2022-11-05T22:22:52.543Z,17.42
2022-11-05T22:26:01.922Z,14.95
2022-11-05T22:29:07.497Z,20.75
2022-11-05T22:32:12.267Z,17.98
2022-11-05T22:35:17.141Z,24.70
2022-11-05T22:38:21.607Z,15.95
2022-11-05T22:41:26.129Z,16.23
2022-11-05T22:44:30.729Z,19.60
2022-11-05T22:47:37.681Z,22.58
2022-11-05T22:50:42.347Z,18.10
2022-11-05T22:53:46.730Z,19.13
2022-11-05T22:56:52.558Z,23.92
2022-11-05T22:59:56.772Z,18.58
2022-11-05T23:03:02.771Z,17.83
2022-11-05T23:06:56.809Z,15.95
2022-11-05T23:10:19.684Z,21.05
2022-11-05T23:13:24.336Z,18.75
2022-11-05T23:16:47.868Z,17.55
2022-11-05T23:20:11.149Z,19.00
2022-11-05T23:23:39.148Z,21.50
2022-11-05T23:26:53.000Z,21.38
2022-11-05T23:30:00.170Z,22.10
2022-11-05T23:33:07.390Z,21.10
2022-11-05T23:36:31.509Z,19.65
2022-11-05T23:43:06.782Z,18.38
2022-11-05T23:46:29.563Z,31.42
2022-11-05T23:49:34.220Z,18.48
2022-11-05T23:52:38.598Z,21.25
2022-11-05T23:55:43.162Z,19.42
2022-11-05T23:58:50.915Z,19.02
